createdAt,value
2023-02-28T00:01:32.116Z,101211.09
2023-02-28T00:04:00.017Z,101210.59
2023-02-28T00:06:28.126Z,101208.25
2023-02-28T00:08:55.764Z,101216.16
2023-02-28T00:11:23.660Z,101219.97
2023-02-28T00:13:51.695Z,101216.28
2023-02-28T00:16:21.987Z,101216.09
2023-02-28T00:18:51.517Z,101218.19
2023-02-28T00:21:20.289Z,101218.69
2023-02-28T00:23:48.274Z,101215.00
2023-02-28T00:26:15.910Z,101227.28
2023-02-28T00:28:43.638Z,101224.19
2023-02-28T00:31:12.847Z,101227.00
2023-02-28T00:33:40.484Z,101229.34
2023-02-28T00:36:15.793Z,101223.75
2023-02-28T00:38:43.445Z,101223.63
2023-02-28T00:41:11.723Z,101234.28
2023-02-28T00:43:40.983Z,101231.88
2023-02-28T00:46:10.154Z,101228.28
2023-02-28T00:48:40.949Z,101227.06
2023-02-28T00:51:09.939Z,101240.25
2023-02-28T00:53:37.773Z,101234.31
2023-02-28T00:56:05.682Z,101230.19
2023-02-28T00:58:33.511Z,101234.63
2023-02-28T01:01:01.203Z,101235.63
2023-02-28T01:03:28.812Z,101236.25
2023-02-28T01:05:56.574Z,101235.06
2023-02-28T01:08:26.843Z,101232.56
2023-02-28T01:10:54.650Z,101235.81
2023-02-28T01:13:24.069Z,101238.09
2023-02-28T01:15:54.358Z,101234.56
2023-02-28T01:18:23.076Z,101233.72
2023-02-28T01:20:53.339Z,101227.34
2023-02-28T01:23:22.554Z,101231.03
2023-02-28T01:25:51.920Z,101242.84
2023-02-28T01:28:19.843Z,101237.69
2023-02-28T01:30:50.140Z,101234.78
2023-02-28T01:33:17.817Z,101242.94
2023-02-28T01:35:46.917Z,101242.09
2023-02-28T01:38:22.242Z,101236.81
2023-02-28T01:40:55.312Z,101233.09
2023-02-28T01:43:25.180Z,101232.72
2023-02-28T01:45:56.591Z,101226.13
2023-02-28T01:48:30.519Z,101231.63
2023-02-28T01:51:04.534Z,101226.00
2023-02-28T01:53:36.833Z,101242.56
2023-02-28T01:56:11.945Z,101241.47
2023-02-28T01:58:40.264Z,101228.09
2023-02-28T02:03:56.416Z,101232.50
2023-02-28T02:06:24.507Z,101235.16
2023-02-28T02:08:53.342Z,101226.59
2023-02-28T02:11:24.794Z,101233.56
2023-02-28T02:14:27.323Z,101226.94
2023-02-28T02:17:10.029Z,101231.81
2023-02-28T02:19:56.953Z,101235.00
2023-02-28T02:22:43.633Z,101226.94
2023-02-28T02:25:25.218Z,101228.91
2023-02-28T02:28:39.399Z,101223.44
2023-02-28T02:31:49.393Z,101227.72
2023-02-28T02:34:36.488Z,101227.63
2023-02-28T02:37:14.977Z,101231.47
2023-02-28T02:39:51.278Z,101231.47
2023-02-28T02:42:29.719Z,101227.50
2023-02-28T02:45:03.503Z,101228.72
2023-02-28T02:47:33.835Z,101223.06
2023-02-28T02:50:07.311Z,101230.59
2023-02-28T02:52:40.647Z,101228.06
2023-02-28T02:55:13.043Z,101230.13
2023-02-28T02:57:49.360Z,101229.50
2023-02-28T03:00:19.705Z,101230.13
2023-02-28T03:02:49.030Z,101233.34
2023-02-28T03:05:24.771Z,101234.19
2023-02-28T03:07:52.350Z,101235.41
2023-02-28T03:10:36.632Z,101229.13
2023-02-28T03:13:38.656Z,101224.59
2023-02-28T03:16:25.905Z,101218.88
2023-02-28T03:19:02.016Z,101223.22
2023-02-28T03:21:38.103Z,101221.88
2023-02-28T03:24:12.078Z,101218.78
2023-02-28T03:26:44.611Z,101221.69
2023-02-28T03:29:18.246Z,101225.84
2023-02-28T03:31:53.638Z,101222.25
2023-02-28T03:34:27.385Z,101227.69
2023-02-28T03:37:05.873Z,101219.72
2023-02-28T03:39:39.047Z,101214.94
2023-02-28T03:42:20.327Z,101211.75
2023-02-28T03:44:52.864Z,101222.09
2023-02-28T03:47:26.034Z,101218.59
2023-02-28T03:50:01.419Z,101220.59
2023-02-28T03:52:37.626Z,101222.72
2023-02-28T03:55:13.064Z,101219.34
2023-02-28T03:57:52.380Z,101214.75
2023-02-28T04:00:29.095Z,101229.78
2023-02-28T04:02:57.150Z,101222.53
2023-02-28T04:05:26.037Z,101214.34
2023-02-28T04:07:56.624Z,101224.63
2023-02-28T04:10:24.400Z,101223.22
2023-02-28T04:12:54.616Z,101242.66
2023-02-28T04:15:25.673Z,101228.19
2023-02-28T04:17:53.310Z,101231.47
2023-02-28T04:20:30.764Z,101233.84
2023-02-28T04:23:09.656Z,101230.34
2023-02-28T04:25:37.543Z,101232.63
2023-02-28T04:28:05.537Z,101233.19
2023-02-28T04:30:33.439Z,101242.84
2023-02-28T04:33:02.144Z,101239.56
2023-02-28T04:35:32.015Z,101236.56
2023-02-28T04:38:04.587Z,101238.16
2023-02-28T04:40:32.529Z,101231.88
2023-02-28T04:43:00.361Z,101233.66
2023-02-28T04:45:31.419Z,101238.91
2023-02-28T04:48:01.434Z,101233.47
2023-02-28T04:50:30.263Z,101233.56
2023-02-28T04:52:59.074Z,101237.31
2023-02-28T04:55:28.354Z,101238.25
2023-02-28T04:57:56.157Z,101236.38
2023-02-28T05:00:24.085Z,101224.44
2023-02-28T05:02:53.888Z,101232.22
2023-02-28T05:05:21.747Z,101233.53
2023-02-28T05:07:49.985Z,101232.97
2023-02-28T05:10:28.226Z,101232.97
2023-02-28T05:12:59.644Z,101231.47
2023-02-28T05:15:27.928Z,101228.31
2023-02-28T05:17:55.738Z,101236.66
2023-02-28T05:20:23.606Z,101233.28
2023-02-28T05:22:56.335Z,101232.88
2023-02-28T05:25:24.621Z,101239.69
2023-02-28T05:27:52.988Z,101246.91
2023-02-28T05:30:22.318Z,101240.34
2023-02-28T05:32:55.386Z,101249.25
2023-02-28T05:35:23.229Z,101250.78
2023-02-28T05:37:51.053Z,101249.19
2023-02-28T05:40:21.156Z,101249.34
2023-02-28T05:42:49.280Z,101247.84
2023-02-28T05:45:19.071Z,101244.94
2023-02-28T05:47:48.090Z,101251.25
2023-02-28T05:50:18.259Z,101251.25
2023-02-28T05:52:46.199Z,101257.75
2023-02-28T05:55:14.604Z,101261.31
2023-02-28T05:57:43.409Z,101256.97
2023-02-28T06:00:19.592Z,101258.28
2023-02-28T06:03:06.693Z,101258.59
2023-02-28T06:05:34.302Z,101256.16
2023-02-28T06:08:02.036Z,101258.00
2023-02-28T06:10:29.837Z,101252.47
2023-02-28T06:12:59.661Z,101257.00
2023-02-28T06:15:27.266Z,101258.78
2023-02-28T06:17:57.404Z,101267.31
2023-02-28T06:20:30.014Z,101269.09
2023-02-28T06:22:59.701Z,101280.59
2023-02-28T06:25:27.557Z,101274.94
2023-02-28T06:27:56.069Z,101273.53
2023-02-28T06:30:26.247Z,101277.94
2023-02-28T06:32:54.199Z,101285.50
2023-02-28T06:35:22.221Z,101294.56
2023-02-28T06:37:51.444Z,101299.41
2023-02-28T06:40:19.314Z,101321.41
2023-02-28T06:42:46.930Z,101311.84
2023-02-28T06:45:14.824Z,101315.72
2023-02-28T06:47:43.424Z,101313.69
2023-02-28T06:50:14.150Z,101316.50
2023-02-28T06:52:41.738Z,101321.25
2023-02-28T06:55:11.400Z,101320.22
2023-02-28T06:57:39.424Z,101322.97
2023-02-28T07:00:09.486Z,101324.66
2023-02-28T07:02:38.433Z,101319.03
2023-02-28T07:05:06.493Z,101316.44
2023-02-28T07:07:34.276Z,101328.13
2023-02-28T07:10:01.927Z,101316.66
2023-02-28T07:12:30.772Z,101308.25
2023-02-28T07:14:58.316Z,101301.38
2023-02-28T07:17:25.911Z,101305.69
2023-02-28T07:19:53.473Z,101304.84
2023-02-28T07:22:21.021Z,101308.50
2023-02-28T07:24:48.868Z,101303.53
2023-02-28T07:27:24.884Z,101300.75
2023-02-28T07:29:54.258Z,101297.03
2023-02-28T07:32:24.899Z,101308.25
2023-02-28T07:34:52.577Z,101298.34
2023-02-28T07:37:20.251Z,101291.94
2023-02-28T07:39:47.774Z,101304.59
2023-02-28T07:42:16.106Z,101301.22
2023-02-28T07:44:43.665Z,101290.22
2023-02-28T07:47:17.183Z,101286.38
2023-02-28T07:49:44.769Z,101283.16
2023-02-28T07:52:19.566Z,101288.13
2023-02-28T07:54:47.146Z,101295.72
2023-02-28T07:57:14.760Z,101298.22
2023-02-28T07:59:42.816Z,101285.06
2023-02-28T08:02:17.767Z,101299.38
2023-02-28T08:04:47.351Z,101306.19
2023-02-28T08:07:16.973Z,101288.56
2023-02-28T08:09:45.704Z,101286.84
2023-02-28T08:12:13.911Z,101288.00
2023-02-28T08:14:41.556Z,101295.13
2023-02-28T08:17:09.143Z,101278.00
2023-02-28T08:19:40.099Z,101292.59
2023-02-28T08:22:08.845Z,101275.72
2023-02-28T08:24:36.477Z,101266.91
2023-02-28T08:27:04.321Z,101264.00
2023-02-28T08:29:31.943Z,101270.13
2023-02-28T08:32:00.337Z,101275.06
2023-02-28T08:34:29.129Z,101279.22
2023-02-28T08:36:58.062Z,101273.16
2023-02-28T08:39:25.756Z,101256.34
2023-02-28T08:42:02.098Z,101261.94
2023-02-28T08:44:45.461Z,101261.59
2023-02-28T08:47:13.461Z,101284.97
2023-02-28T08:49:42.658Z,101251.41
2023-02-28T08:52:12.354Z,101254.47
2023-02-28T08:54:40.051Z,101262.47
2023-02-28T08:57:11.086Z,101264.38
2023-02-28T08:59:41.434Z,101273.50
2023-02-28T09:02:26.835Z,101254.78
2023-02-28T09:04:55.009Z,101253.22
2023-02-28T09:07:33.016Z,101260.31
2023-02-28T09:10:01.027Z,101258.19
2023-02-28T09:12:33.737Z,101249.97
2023-02-28T09:15:04.279Z,101246.84
2023-02-28T09:17:35.105Z,101256.03
2023-02-28T09:20:03.035Z,101250.03
2023-02-28T09:22:36.021Z,101252.00
2023-02-28T09:25:04.072Z,101240.88
2023-02-28T09:27:39.476Z,101249.56
2023-02-28T09:30:14.032Z,101237.66
2023-02-28T09:32:42.419Z,101233.88
2023-02-28T09:35:17.262Z,101232.81
2023-02-28T09:37:55.035Z,101231.13
2023-02-28T09:40:26.070Z,101244.31
2023-02-28T09:43:02.206Z,101246.91
2023-02-28T09:45:39.142Z,101237.53
2023-02-28T09:48:18.847Z,101232.00
2023-02-28T09:50:50.353Z,101227.88
2023-02-28T09:53:29.779Z,101221.59
2023-02-28T09:56:06.541Z,101231.63
2023-02-28T09:58:42.236Z,101234.66
2023-02-28T10:01:21.741Z,101226.72
2023-02-28T10:03:57.463Z,101220.72
2023-02-28T10:06:32.179Z,101226.63
2023-02-28T10:09:05.944Z,101219.13
2023-02-28T10:11:37.156Z,101234.44
2023-02-28T10:14:15.290Z,101220.56
2023-02-28T10:16:48.802Z,101232.16
2023-02-28T10:19:21.141Z,101233.06
2023-02-28T10:24:46.924Z,101221.44
2023-02-28T10:27:19.578Z,101221.19
2023-02-28T10:29:49.144Z,101220.94
2023-02-28T10:32:20.504Z,101229.28
2023-02-28T10:34:54.425Z,101225.06
2023-02-28T10:37:22.653Z,101218.09
2023-02-28T10:39:51.806Z,101227.34
2023-02-28T10:42:27.770Z,101221.19
2023-02-28T10:45:15.335Z,101213.38
2023-02-28T10:47:54.741Z,101220.34
2023-02-28T10:50:37.716Z,101232.75
2023-02-28T10:53:52.572Z,101218.56
2023-02-28T10:56:26.836Z,101220.00
2023-02-28T10:58:57.867Z,101212.78
2023-02-28T11:01:40.246Z,101217.56
2023-02-28T11:04:22.468Z,101221.13
2023-02-28T11:06:58.687Z,101219.16
2023-02-28T11:09:31.114Z,101212.00
2023-02-28T11:12:00.804Z,101214.78
2023-02-28T11:14:33.403Z,101204.75
2023-02-28T11:17:04.753Z,101208.31
2023-02-28T11:19:40.022Z,101200.78
2023-02-28T11:22:09.261Z,101207.00
2023-02-28T11:24:43.064Z,101199.88
2023-02-28T11:27:27.441Z,101190.03
2023-02-28T11:29:55.659Z,101185.19
2023-02-28T11:32:24.544Z,101181.34
2023-02-28T11:35:03.723Z,101170.94
2023-02-28T11:37:33.527Z,101181.28
2023-02-28T11:40:01.413Z,101170.06
2023-02-28T11:42:48.007Z,101180.03
2023-02-28T11:45:26.255Z,101177.88
2023-02-28T11:48:04.305Z,101182.75
2023-02-28T11:50:48.349Z,101175.66
2023-02-28T11:53:27.390Z,101181.63
2023-02-28T11:56:08.645Z,101166.94
2023-02-28T11:58:47.370Z,101168.41
2023-02-28T12:01:37.251Z,101162.44
2023-02-28T12:04:23.193Z,101173.44
2023-02-28T12:06:59.140Z,101169.00
2023-02-28T12:09:44.693Z,101173.22
2023-02-28T12:12:25.742Z,101170.06
2023-02-28T12:18:05.416Z,101174.84
2023-02-28T12:20:39.067Z,101169.50
2023-02-28T12:23:28.102Z,101169.28
2023-02-28T12:26:10.539Z,101157.78
2023-02-28T12:28:43.022Z,101164.78
2023-02-28T12:31:21.346Z,101146.88
2023-02-28T12:34:03.412Z,101144.16
2023-02-28T12:36:35.360Z,101152.97
2023-02-28T12:39:07.861Z,101148.72
2023-02-28T12:41:41.707Z,101172.19
2023-02-28T12:44:14.701Z,101154.09
2023-02-28T12:46:46.692Z,101170.09
2023-02-28T12:49:19.521Z,101147.41
2023-02-28T12:51:51.144Z,101151.13
2023-02-28T12:54:29.776Z,101151.56
2023-02-28T12:57:07.017Z,101147.97
2023-02-28T12:59:41.429Z,101145.41
2023-02-28T13:02:40.057Z,101144.59
2023-02-28T13:05:31.303Z,101133.81
2023-02-28T13:08:21.033Z,101130.59
2023-02-28T13:10:54.845Z,101123.53
2023-02-28T13:13:26.750Z,101124.56
2023-02-28T13:16:04.361Z,101125.75
2023-02-28T13:18:37.140Z,101126.75
2023-02-28T13:21:08.303Z,101121.16
2023-02-28T13:23:41.898Z,101119.25
2023-02-28T13:26:09.779Z,101128.31
2023-02-28T13:29:23.800Z,101133.56
2023-02-28T13:32:31.765Z,101130.91
2023-02-28T13:35:31.218Z,101124.22
2023-02-28T13:38:25.946Z,101115.69
2023-02-28T13:40:53.776Z,101122.69
2023-02-28T13:43:34.584Z,101120.22
2023-02-28T13:46:15.060Z,101118.91
2023-02-28T13:48:43.203Z,101118.16
2023-02-28T13:51:45.022Z,101120.16
2023-02-28T13:54:31.854Z,101108.94
2023-02-28T13:57:13.821Z,101119.59
2023-02-28T13:59:52.577Z,101111.13
2023-02-28T14:02:39.934Z,101107.53
2023-02-28T14:07:50.963Z,101113.28
2023-02-28T14:10:28.806Z,101115.44
2023-02-28T14:13:14.046Z,101106.06
2023-02-28T14:15:49.349Z,101106.38
2023-02-28T14:18:22.970Z,101107.63
2023-02-28T14:20:56.715Z,101100.97
2023-02-28T14:23:37.988Z,101111.19
2023-02-28T14:26:21.130Z,101100.41
2023-02-28T14:29:03.313Z,101090.53
2023-02-28T14:31:36.966Z,101093.84
2023-02-28T14:34:19.170Z,101106.19
2023-02-28T14:36:47.224Z,101092.44
2023-02-28T14:39:18.480Z,101097.19
2023-02-28T14:41:48.663Z,101080.78
2023-02-28T14:44:20.076Z,101079.69
2023-02-28T14:46:50.203Z,101087.97
2023-02-28T14:49:21.673Z,101087.22
2023-02-28T14:51:51.872Z,101080.22
2023-02-28T14:54:25.503Z,101093.13
2023-02-28T14:56:54.499Z,101097.06
2023-02-28T14:59:29.001Z,101079.72
2023-02-28T15:02:22.308Z,101092.59
2023-02-28T15:04:58.633Z,101083.06
2023-02-28T15:07:30.421Z,101069.19
2023-02-28T15:10:19.933Z,101084.75
2023-02-28T15:12:54.857Z,101082.34
2023-02-28T15:15:31.787Z,101072.16
2023-02-28T15:18:11.579Z,101078.31
2023-02-28T15:20:43.070Z,101078.56
2023-02-28T15:23:11.754Z,101077.97
2023-02-28T15:25:39.690Z,101059.50
2023-02-28T15:28:16.078Z,101075.47
2023-02-28T15:30:54.299Z,101080.78
2023-02-28T15:33:23.976Z,101083.88
2023-02-28T15:35:51.895Z,101071.34
2023-02-28T15:38:24.569Z,101070.47
2023-02-28T15:40:55.452Z,101083.34
2023-02-28T15:43:33.054Z,101077.19
2023-02-28T15:46:04.414Z,101072.81
2023-02-28T15:48:35.261Z,101074.50
2023-02-28T15:51:07.588Z,101073.59
2023-02-28T15:53:39.694Z,101080.09
2023-02-28T15:56:24.512Z,101080.28
2023-02-28T15:58:56.363Z,101072.69
2023-02-28T16:01:31.493Z,101065.69
2023-02-28T16:04:01.777Z,101084.78
2023-02-28T16:06:40.192Z,101075.88
2023-02-28T16:09:11.753Z,101076.97
2023-02-28T16:11:42.669Z,101078.78
2023-02-28T16:14:18.586Z,101076.41
2023-02-28T16:16:48.050Z,101077.00
2023-02-28T16:19:15.769Z,101067.84
2023-02-28T16:21:45.031Z,101069.44
2023-02-28T16:24:12.771Z,101084.81
2023-02-28T16:26:43.102Z,101080.22
2023-02-28T16:29:15.536Z,101086.72
2023-02-28T16:31:44.579Z,101078.81
2023-02-28T16:34:12.240Z,101087.25
2023-02-28T16:36:39.885Z,101093.72
2023-02-28T16:39:07.503Z,101097.97
2023-02-28T16:41:36.512Z,101096.78
2023-02-28T16:44:10.464Z,101104.31
2023-02-28T16:46:38.794Z,101112.78
2023-02-28T16:49:13.161Z,101107.34
2023-02-28T16:51:40.919Z,101110.53
2023-02-28T16:54:09.086Z,101111.53
2023-02-28T16:56:39.256Z,101116.75
2023-02-28T16:59:06.865Z,101120.38
2023-02-28T17:01:34.850Z,101128.25
2023-02-28T17:04:02.770Z,101125.81
2023-02-28T17:06:32.971Z,101119.94
2023-02-28T17:09:01.209Z,101128.03
2023-02-28T17:11:29.559Z,101131.53
2023-02-28T17:13:57.819Z,101125.16
2023-02-28T17:16:30.365Z,101134.34
2023-02-28T17:19:00.427Z,101133.03
2023-02-28T17:21:28.238Z,101136.25
2023-02-28T17:23:57.424Z,101146.03
2023-02-28T17:26:27.091Z,101153.53
2023-02-28T17:28:56.693Z,101147.56
2023-02-28T17:31:24.923Z,101147.44
2023-02-28T17:33:53.001Z,101147.34
2023-02-28T17:36:26.396Z,101143.72
2023-02-28T17:38:55.977Z,101149.75
2023-02-28T17:41:27.336Z,101159.13
2023-02-28T17:43:55.004Z,101165.78
2023-02-28T17:46:25.809Z,101169.03
2023-02-28T17:48:54.784Z,101172.06
2023-02-28T17:51:25.413Z,101178.31
2023-02-28T17:53:53.069Z,101178.91
2023-02-28T17:56:23.977Z,101179.75
2023-02-28T17:58:55.383Z,101189.28
2023-02-28T18:01:29.379Z,101180.25
2023-02-28T18:03:57.649Z,101192.53
2023-02-28T18:06:28.397Z,101188.69
2023-02-28T18:08:56.294Z,101194.69
2023-02-28T18:11:25.578Z,101197.34
2023-02-28T18:14:04.509Z,101193.13
2023-02-28T18:16:32.622Z,101198.44
2023-02-28T18:19:00.561Z,101192.41
2023-02-28T18:21:28.640Z,101190.81
2023-02-28T18:23:56.446Z,101185.88
2023-02-28T18:26:26.848Z,101194.75
2023-02-28T18:28:57.352Z,101193.78
2023-02-28T18:31:25.151Z,101193.81
2023-02-28T18:33:54.989Z,101193.69
2023-02-28T18:36:23.020Z,101189.97
2023-02-28T18:38:51.665Z,101195.47
2023-02-28T18:41:22.531Z,101197.63
2023-02-28T18:43:52.241Z,101195.25
2023-02-28T18:46:22.569Z,101196.41
2023-02-28T18:48:50.431Z,101198.94
2023-02-28T18:51:21.122Z,101195.34
2023-02-28T18:53:52.099Z,101204.22
2023-02-28T18:56:21.857Z,101204.59
2023-02-28T18:58:50.108Z,101192.78
2023-02-28T19:01:21.004Z,101198.31
2023-02-28T19:03:52.603Z,101191.91
2023-02-28T19:06:21.319Z,101201.75
2023-02-28T19:08:50.761Z,101206.94
2023-02-28T19:11:20.516Z,101208.84
2023-02-28T19:13:49.545Z,101207.94
2023-02-28T19:16:18.720Z,101204.56
2023-02-28T19:18:46.534Z,101206.38
2023-02-28T19:21:19.507Z,101209.97
2023-02-28T19:23:47.420Z,101212.88
2023-02-28T19:26:20.260Z,101208.19
2023-02-28T19:28:49.847Z,101204.22
2023-02-28T19:31:19.493Z,101217.06
2023-02-28T19:33:47.452Z,101217.97
2023-02-28T19:36:19.776Z,101220.16
2023-02-28T19:38:49.148Z,101217.31
2023-02-28T19:41:18.587Z,101218.50
2023-02-28T19:43:46.689Z,101220.44
2023-02-28T19:46:14.504Z,101218.59
2023-02-28T19:48:44.558Z,101220.63
2023-02-28T19:51:14.818Z,101221.41
2023-02-28T19:53:45.103Z,101226.22
2023-02-28T19:56:16.410Z,101232.84
2023-02-28T19:58:51.977Z,101230.19
2023-02-28T20:01:24.365Z,101231.25
2023-02-28T20:03:53.559Z,101240.81
2023-02-28T20:06:22.399Z,101232.28
2023-02-28T20:12:23.251Z,101238.44
2023-02-28T20:15:11.562Z,101239.81
2023-02-28T20:17:45.060Z,101231.53
2023-02-28T20:20:20.709Z,101239.25
2023-02-28T20:22:49.773Z,101235.69
2023-02-28T20:25:21.459Z,101231.88
2023-02-28T20:27:57.985Z,101234.31
2023-02-28T20:33:33.900Z,101223.19
2023-02-28T20:36:04.238Z,101226.22
2023-02-28T20:38:34.651Z,101224.53
2023-02-28T20:41:15.270Z,101229.25
2023-02-28T20:43:43.264Z,101222.06
2023-02-28T20:46:12.852Z,101234.31
2023-02-28T20:48:41.374Z,101238.97
2023-02-28T20:51:11.765Z,101239.19
2023-02-28T20:53:39.555Z,101235.09
2023-02-28T20:56:21.732Z,101229.16
2023-02-28T20:58:54.390Z,101244.69
2023-02-28T21:01:38.340Z,101235.81
2023-02-28T21:04:10.472Z,101241.66
2023-02-28T21:06:45.851Z,101239.34
2023-02-28T21:09:20.280Z,101228.22
2023-02-28T21:11:51.651Z,101234.25
2023-02-28T21:17:02.443Z,101234.34
2023-02-28T21:19:30.460Z,101232.34
2023-02-28T21:22:05.922Z,101235.50
2023-02-28T21:24:35.267Z,101234.75
2023-02-28T21:27:09.128Z,101241.09
2023-02-28T21:32:21.264Z,101241.22
2023-02-28T21:34:50.095Z,101233.94
2023-02-28T21:37:22.422Z,101234.69
2023-02-28T21:39:50.536Z,101238.06
2023-02-28T21:42:19.567Z,101245.75
2023-02-28T21:44:49.797Z,101248.50
2023-02-28T21:47:18.302Z,101245.97
2023-02-28T21:50:01.215Z,101248.72
2023-02-28T21:52:32.435Z,101245.97
2023-02-28T21:55:00.443Z,101241.22
2023-02-28T21:57:30.546Z,101239.75
2023-02-28T21:59:58.505Z,101237.84
2023-02-28T22:02:28.416Z,101240.78
2023-02-28T22:05:05.799Z,101234.88
2023-02-28T22:07:36.344Z,101240.88
2023-02-28T22:10:07.546Z,101253.00
2023-02-28T22:12:36.571Z,101245.41
2023-02-28T22:15:07.351Z,101256.72
2023-02-28T22:17:35.264Z,101251.50
2023-02-28T22:20:03.577Z,101250.88
2023-02-28T22:22:31.603Z,101251.66
2023-02-28T22:24:59.887Z,101255.03
2023-02-28T22:27:29.668Z,101258.78
2023-02-28T22:30:02.086Z,101258.94
2023-02-28T22:32:31.957Z,101262.91
2023-02-28T22:35:06.940Z,101257.41
2023-02-28T22:37:34.649Z,101272.06
2023-02-28T22:40:03.929Z,101273.66
2023-02-28T22:42:34.023Z,101262.69
2023-02-28T22:45:03.111Z,101266.28
2023-02-28T22:47:30.742Z,101271.78
2023-02-28T22:49:59.664Z,101280.22
2023-02-28T22:52:28.127Z,101275.25
2023-02-28T22:54:58.100Z,101274.91
2023-02-28T22:57:26.148Z,101269.44
2023-02-28T22:59:54.090Z,101269.75
2023-02-28T23:02:23.696Z,101277.13
2023-02-28T23:04:51.348Z,101282.09
2023-02-28T23:07:18.907Z,101277.09
2023-02-28T23:09:50.025Z,101286.09
2023-02-28T23:12:17.757Z,101278.09
2023-02-28T23:14:55.375Z,101279.22
2023-02-28T23:17:24.815Z,101287.59
2023-02-28T23:19:52.377Z,101284.50
2023-02-28T23:22:19.958Z,101287.31
2023-02-28T23:24:47.871Z,101294.28
2023-02-28T23:27:15.496Z,101286.06
2023-02-28T23:29:43.656Z,101278.50
2023-02-28T23:32:11.421Z,101276.38
2023-02-28T23:34:40.500Z,101276.75
2023-02-28T23:37:08.118Z,101278.22
2023-02-28T23:39:35.744Z,101282.78
2023-02-28T23:42:03.361Z,101275.06
2023-02-28T23:44:31.780Z,101281.03
2023-02-28T23:46:59.488Z,101282.41
2023-02-28T23:49:27.253Z,101281.91
2023-02-28T23:51:56.285Z,101282.81
2023-02-28T23:54:24.146Z,101286.41
2023-02-28T23:56:51.687Z,101283.25
2023-02-28T23:59:19.259Z,101292.56
